Terminal Aerodrome Forecast
Issued by NWS

Home | Current Version | Previous Version | Text Only | Print | Product List | Glossary On
Versions: 1 2 3 4 5 6 7 8 9 10 11 12 13
000
FTUS45 KREV 241727
TAFMMH
TAF
KMMH 241727Z 2418/2518 VRB04KT P6SM SKC
     FM241900 11008KT P6SM FEW090 SCT180
     FM242300 28010G18KT P6SM VCTS SCT090CB BKN180
     FM250300 30007KT P6SM FEW080 BKN180
     FM250500 VRB04KT P6SM SCT180
     FM251600 12007KT P6SM FEW080 SCT180=

USA.gov is the U.S. government's official web portal to all federal, state and local government web resources and services.